createdAt,value
2018-07-10T00:00:00.966Z,99.90
2018-07-10T00:02:41.238Z,99.90
2018-07-10T00:05:29.291Z,99.90
2018-07-10T00:08:44.086Z,99.90
2018-07-10T00:11:27.137Z,99.90
2018-07-10T00:13:56.111Z,99.90
2018-07-10T00:16:25.082Z,99.90
2018-07-10T00:18:54.687Z,99.90
2018-07-10T00:21:23.634Z,99.90
2018-07-10T00:23:52.634Z,99.90
2018-07-10T00:26:21.614Z,99.90
2018-07-10T00:28:50.569Z,99.90
2018-07-10T00:31:19.622Z,99.90
2018-07-10T00:33:48.608Z,99.90
2018-07-10T00:36:17.600Z,99.90
2018-07-10T00:39:03.427Z,99.90
2018-07-10T00:41:38.554Z,99.90
2018-07-10T00:44:07.996Z,99.90
2018-07-10T00:46:38.332Z,99.90
2018-07-10T00:49:07.321Z,99.90
2018-07-10T00:51:37.632Z,99.90
2018-07-10T00:54:06.692Z,99.90
2018-07-10T00:56:35.871Z,99.90
2018-07-10T00:59:05.550Z,99.90
2018-07-10T01:01:35.085Z,99.90
2018-07-10T01:04:04.086Z,99.90
2018-07-10T01:06:33.046Z,99.90
2018-07-10T01:09:02.042Z,99.90
2018-07-10T01:11:31.066Z,99.90
2018-07-10T01:14:00.067Z,99.90
2018-07-10T01:16:34.362Z,99.90
2018-07-10T01:19:05.845Z,99.90
2018-07-10T01:21:34.862Z,99.90
2018-07-10T01:24:04.527Z,99.90
2018-07-10T01:26:35.872Z,99.90
2018-07-10T01:29:11.847Z,99.90
2018-07-10T01:31:42.807Z,99.90
2018-07-10T01:34:11.864Z,99.90
2018-07-10T01:36:40.867Z,99.90
2018-07-10T01:39:10.118Z,99.90
2018-07-10T01:41:39.082Z,99.90
2018-07-10T01:44:08.108Z,99.90
2018-07-10T01:46:37.166Z,99.90
2018-07-10T01:49:06.139Z,99.90
2018-07-10T01:51:35.413Z,99.90
2018-07-10T01:54:04.421Z,99.90
2018-07-10T01:56:33.488Z,99.90
2018-07-10T01:59:02.680Z,99.90
2018-07-10T02:01:31.650Z,99.90
2018-07-10T02:04:01.313Z,99.90
2018-07-10T02:06:30.582Z,99.90
2018-07-10T02:08:59.778Z,99.90
2018-07-10T02:11:28.763Z,99.90
2018-07-10T02:13:57.774Z,99.90
2018-07-10T02:16:26.750Z,99.90
2018-07-10T02:18:56.010Z,99.90
2018-07-10T02:21:24.987Z,99.90
2018-07-10T02:23:54.225Z,99.90
2018-07-10T02:26:25.359Z,99.90
2018-07-10T02:28:55.338Z,99.90
2018-07-10T02:31:24.327Z,99.90
2018-07-10T02:33:53.800Z,99.90
2018-07-10T02:36:23.768Z,99.90
2018-07-10T02:38:58.506Z,99.90
2018-07-10T02:41:27.528Z,99.90
2018-07-10T02:43:59.449Z,99.90
2018-07-10T02:46:29.454Z,99.90
2018-07-10T02:49:11.371Z,99.90
2018-07-10T02:51:48.598Z,99.90
2018-07-10T02:54:17.658Z,99.90
2018-07-10T02:56:47.725Z,99.90
2018-07-10T02:59:16.710Z,99.90
2018-07-10T03:01:45.771Z,99.90
2018-07-10T03:04:14.923Z,99.90
2018-07-10T03:06:43.890Z,99.90
2018-07-10T03:09:13.503Z,99.90
2018-07-10T03:11:42.502Z,99.90
2018-07-10T03:14:11.883Z,99.90
2018-07-10T03:16:40.879Z,99.90
2018-07-10T03:19:10.416Z,99.90
2018-07-10T03:21:39.886Z,99.90
2018-07-10T03:24:09.334Z,99.90
2018-07-10T03:26:38.441Z,99.90
2018-07-10T03:29:07.371Z,99.90
2018-07-10T03:31:36.327Z,99.90
2018-07-10T03:34:05.346Z,99.90
2018-07-10T03:36:34.355Z,99.90
2018-07-10T03:39:04.495Z,99.90
2018-07-10T03:41:33.556Z,99.90
2018-07-10T03:44:02.543Z,99.90
2018-07-10T03:46:31.634Z,99.90
2018-07-10T03:49:00.746Z,99.90
2018-07-10T03:51:29.763Z,99.90
2018-07-10T03:53:58.939Z,99.90
2018-07-10T03:56:27.965Z,99.90
2018-07-10T03:58:58.371Z,99.90
2018-07-10T04:01:32.063Z,99.90
2018-07-10T04:04:01.227Z,99.90
2018-07-10T04:06:30.322Z,99.90
2018-07-10T04:09:00.534Z,99.90
2018-07-10T04:11:29.499Z,99.90
2018-07-10T04:13:58.570Z,99.90
2018-07-10T04:16:28.022Z,99.90
2018-07-10T04:18:57.485Z,99.90
2018-07-10T04:21:28.754Z,99.90
2018-07-10T04:24:03.463Z,99.90
2018-07-10T04:26:35.218Z,99.90
2018-07-10T04:29:09.317Z,99.90
2018-07-10T04:31:46.731Z,99.90
2018-07-10T04:34:15.963Z,99.90
2018-07-10T04:36:45.012Z,99.90
2018-07-10T04:39:14.029Z,99.90
2018-07-10T04:41:43.615Z,99.90
2018-07-10T04:44:14.015Z,99.90
2018-07-10T04:46:45.275Z,99.90
2018-07-10T04:49:23.500Z,99.90
2018-07-10T04:51:59.654Z,99.90
2018-07-10T04:54:34.156Z,99.90
2018-07-10T04:57:06.362Z,99.90
2018-07-10T04:59:35.954Z,99.90
2018-07-10T05:02:06.127Z,99.90
2018-07-10T05:04:35.781Z,99.90
2018-07-10T05:07:08.502Z,99.90
2018-07-10T05:09:38.324Z,99.90
2018-07-10T05:12:07.555Z,99.90
2018-07-10T05:14:39.878Z,99.90
2018-07-10T05:17:08.857Z,99.90
2018-07-10T05:19:37.870Z,99.90
2018-07-10T05:22:06.870Z,99.90
2018-07-10T05:24:36.414Z,99.90
2018-07-10T05:27:05.463Z,99.90
2018-07-10T05:29:35.063Z,99.90
2018-07-10T05:32:04.339Z,99.90
2018-07-10T05:34:34.606Z,99.90
2018-07-10T05:37:03.610Z,99.90
2018-07-10T05:39:34.539Z,99.90
2018-07-10T05:42:04.215Z,99.90
2018-07-10T05:44:33.182Z,99.90
2018-07-10T05:47:03.002Z,99.90
2018-07-10T05:49:36.753Z,99.90
2018-07-10T05:52:05.843Z,99.90
2018-07-10T05:54:37.245Z,99.90
2018-07-10T05:57:07.758Z,99.90
2018-07-10T05:59:36.722Z,99.90
2018-07-10T06:02:05.766Z,99.90
2018-07-10T06:04:34.762Z,99.90
2018-07-10T06:07:03.730Z,99.90
2018-07-10T06:09:32.726Z,99.90
2018-07-10T06:12:01.983Z,99.90
2018-07-10T06:14:31.114Z,99.90
2018-07-10T06:17:00.151Z,99.90
2018-07-10T06:19:29.190Z,99.90
2018-07-10T06:21:58.194Z,99.90
2018-07-10T06:24:29.222Z,99.90
2018-07-10T06:26:59.290Z,99.90
2018-07-10T06:29:33.738Z,99.90
2018-07-10T06:32:02.907Z,99.90
2018-07-10T06:34:36.462Z,99.90
2018-07-10T06:37:10.400Z,99.90
2018-07-10T06:39:39.788Z,99.90
2018-07-10T06:42:16.564Z,99.90
2018-07-10T06:44:47.731Z,99.90
2018-07-10T06:47:25.878Z,99.90
2018-07-10T06:49:55.018Z,99.90
2018-07-10T06:52:24.104Z,99.90
2018-07-10T06:55:12.063Z,99.90
2018-07-10T06:57:46.059Z,99.90
2018-07-10T07:00:15.071Z,99.90
2018-07-10T07:02:44.103Z,99.90
2018-07-10T07:05:13.063Z,99.90
2018-07-10T07:07:42.111Z,99.90
2018-07-10T07:10:12.222Z,99.90
2018-07-10T07:12:42.015Z,99.90
2018-07-10T07:15:12.622Z,99.90
2018-07-10T07:17:43.841Z,99.90
2018-07-10T07:20:12.796Z,99.90
2018-07-10T07:22:41.763Z,99.90
2018-07-10T07:25:10.750Z,99.90
2018-07-10T07:27:39.742Z,99.90
2018-07-10T07:30:08.823Z,99.90
2018-07-10T07:32:37.804Z,99.90
2018-07-10T07:35:06.965Z,99.90
2018-07-10T07:37:38.474Z,99.90
2018-07-10T07:40:07.451Z,99.90
2018-07-10T07:42:36.726Z,99.90
2018-07-10T07:45:05.727Z,99.90
2018-07-10T07:47:34.730Z,99.90
2018-07-10T07:50:03.715Z,99.90
2018-07-10T07:52:33.052Z,99.90
2018-07-10T07:55:03.329Z,99.90
2018-07-10T07:57:32.442Z,99.90
2018-07-10T08:00:01.421Z,99.90
2018-07-10T08:02:30.402Z,99.90
2018-07-10T08:04:59.387Z,99.90
2018-07-10T08:07:28.410Z,99.90
2018-07-10T08:09:58.126Z,99.90
2018-07-10T08:12:28.851Z,99.90
2018-07-10T08:14:59.090Z,99.90
2018-07-10T08:17:28.221Z,99.90
2018-07-10T08:19:58.249Z,99.90
2018-07-10T08:22:27.834Z,99.90
2018-07-10T08:24:57.001Z,99.90
2018-07-10T08:27:26.358Z,99.90
2018-07-10T08:29:56.139Z,99.90
2018-07-10T08:32:26.827Z,99.90
2018-07-10T08:34:56.027Z,99.90
2018-07-10T08:37:25.118Z,99.90
2018-07-10T08:39:54.127Z,99.90
2018-07-10T08:42:23.115Z,99.90
2018-07-10T08:44:52.194Z,99.90
2018-07-10T08:47:21.133Z,99.90
2018-07-10T08:49:50.122Z,99.90
2018-07-10T08:52:19.789Z,99.90
2018-07-10T08:54:48.830Z,99.90
2018-07-10T08:57:17.806Z,99.90
2018-07-10T08:59:47.809Z,99.90
2018-07-10T09:02:16.738Z,99.90
2018-07-10T09:04:45.742Z,99.90
2018-07-10T09:07:14.734Z,99.90
2018-07-10T09:09:43.726Z,99.90
2018-07-10T09:12:12.729Z,99.90
2018-07-10T09:14:41.899Z,99.90
2018-07-10T09:17:10.963Z,99.90
2018-07-10T09:19:40.139Z,99.90
2018-07-10T09:22:11.434Z,99.90
2018-07-10T09:24:57.690Z,99.90
2018-07-10T09:27:26.707Z,99.90
2018-07-10T09:29:55.650Z,99.90
2018-07-10T09:32:30.363Z,99.90
2018-07-10T09:34:59.347Z,99.90
2018-07-10T09:37:35.246Z,99.90
2018-07-10T09:40:10.119Z,99.90
2018-07-10T09:42:43.880Z,99.90
2018-07-10T09:45:12.862Z,99.90
2018-07-10T09:47:41.843Z,99.90
2018-07-10T09:50:10.888Z,99.90
2018-07-10T09:52:39.858Z,99.90
2018-07-10T09:55:08.846Z,99.90
2018-07-10T09:57:38.837Z,99.90
2018-07-10T10:00:07.817Z,99.90
2018-07-10T10:02:36.887Z,99.90
2018-07-10T10:05:06.814Z,99.90
2018-07-10T10:07:35.871Z,99.90
2018-07-10T10:10:05.264Z,99.90
2018-07-10T10:12:34.407Z,99.90
2018-07-10T10:15:03.446Z,99.90
2018-07-10T10:17:32.998Z,99.90
2018-07-10T10:20:01.979Z,99.90
2018-07-10T10:22:32.194Z,99.90
2018-07-10T10:25:02.772Z,99.90
2018-07-10T10:27:31.870Z,99.90
2018-07-10T10:30:01.421Z,99.90
2018-07-10T10:32:30.667Z,99.90
2018-07-10T10:34:59.875Z,99.90
2018-07-10T10:37:28.878Z,99.90
2018-07-10T10:39:58.038Z,99.90
2018-07-10T10:42:27.650Z,99.90
2018-07-10T10:44:59.491Z,99.90
2018-07-10T10:47:28.511Z,99.90
2018-07-10T10:49:58.387Z,99.90
2018-07-10T10:52:28.130Z,99.90
2018-07-10T10:54:57.297Z,99.90
2018-07-10T10:57:27.409Z,99.90
2018-07-10T10:59:56.541Z,99.90
2018-07-10T11:02:25.600Z,99.90
2018-07-10T11:04:54.523Z,99.90
2018-07-10T11:07:23.514Z,99.90
2018-07-10T11:09:52.587Z,99.90
2018-07-10T11:12:21.712Z,99.90
2018-07-10T11:14:50.716Z,99.90
2018-07-10T11:17:32.230Z,99.90
2018-07-10T11:20:30.724Z,99.90
2018-07-10T11:23:03.494Z,99.90
2018-07-10T11:25:38.926Z,99.90
2018-07-10T11:28:09.833Z,99.90
2018-07-10T11:30:38.978Z,99.90
2018-07-10T11:33:08.837Z,99.90
2018-07-10T11:35:38.307Z,99.90
2018-07-10T11:38:11.879Z,99.90
2018-07-10T11:40:44.035Z,99.90
2018-07-10T11:43:13.215Z,99.90
2018-07-10T11:45:42.268Z,99.90
2018-07-10T11:48:11.330Z,99.90
2018-07-10T11:50:40.338Z,99.90
2018-07-10T11:53:09.321Z,99.90
2018-07-10T11:55:38.342Z,99.90
2018-07-10T11:58:07.886Z,99.90
2018-07-10T12:00:37.138Z,99.90
2018-07-10T12:03:06.834Z,99.90
2018-07-10T12:05:36.859Z,99.90
2018-07-10T12:08:06.150Z,99.90
2018-07-10T12:10:36.206Z,99.90
2018-07-10T12:13:05.240Z,99.90
2018-07-10T12:15:34.214Z,99.90
2018-07-10T12:18:03.203Z,99.90
2018-07-10T12:20:37.924Z,99.90
2018-07-10T12:23:07.613Z,99.90
2018-07-10T12:25:38.554Z,99.90
2018-07-10T12:28:09.598Z,99.90
2018-07-10T12:30:38.639Z,99.90
2018-07-10T12:33:07.958Z,99.90
2018-07-10T12:35:37.131Z,99.90
2018-07-10T12:38:06.202Z,99.90
2018-07-10T12:40:35.518Z,99.90
2018-07-10T12:43:04.515Z,99.90
2018-07-10T12:45:33.466Z,99.90
2018-07-10T12:48:02.521Z,99.90
2018-07-10T12:50:31.475Z,99.90
2018-07-10T12:53:00.452Z,99.90
2018-07-10T12:55:29.466Z,99.90
2018-07-10T12:57:58.437Z,99.90
2018-07-10T13:00:28.550Z,99.90
2018-07-10T13:02:57.803Z,99.90
2018-07-10T13:05:28.050Z,99.90
2018-07-10T13:07:57.091Z,99.90
2018-07-10T13:10:26.078Z,99.90
2018-07-10T13:12:55.098Z,99.90
2018-07-10T13:15:24.091Z,99.90
2018-07-10T13:17:53.459Z,99.90
2018-07-10T13:20:22.434Z,99.90
2018-07-10T13:22:51.501Z,99.90
2018-07-10T13:25:20.498Z,99.90
2018-07-10T13:27:49.903Z,99.90
2018-07-10T13:30:18.903Z,99.90
2018-07-10T13:32:47.922Z,99.90
2018-07-10T13:35:16.883Z,99.90
2018-07-10T13:37:46.909Z,99.90
2018-07-10T13:40:16.132Z,99.90
2018-07-10T13:42:54.309Z,99.90
2018-07-10T13:45:24.370Z,99.90
2018-07-10T13:47:53.410Z,99.90
2018-07-10T13:50:24.782Z,99.90
2018-07-10T13:52:54.601Z,99.90
2018-07-10T13:55:23.970Z,99.90
2018-07-10T13:58:07.018Z,99.90
2018-07-10T14:00:37.282Z,99.90
2018-07-10T14:03:06.275Z,99.90
2018-07-10T14:05:35.256Z,99.90
2018-07-10T14:08:04.311Z,99.90
2018-07-10T14:10:33.320Z,99.90
2018-07-10T14:13:02.659Z,99.90
2018-07-10T14:15:31.626Z,99.90
2018-07-10T14:18:01.887Z,99.90
2018-07-10T14:20:36.238Z,99.90
2018-07-10T14:23:05.234Z,99.90
2018-07-10T14:25:34.198Z,98.90
2018-07-10T14:28:03.576Z,98.30
2018-07-10T14:30:32.613Z,97.70
2018-07-10T14:33:01.680Z,96.00
2018-07-10T14:35:30.887Z,94.40
2018-07-10T14:38:01.998Z,94.20
2018-07-10T14:40:31.703Z,93.30
2018-07-10T14:43:00.755Z,90.90
2018-07-10T14:45:29.766Z,88.30
2018-07-10T14:47:59.780Z,82.70
2018-07-10T14:50:28.873Z,75.90
2018-07-10T14:52:58.009Z,72.20
2018-07-10T14:55:26.970Z,69.80
2018-07-10T14:57:56.238Z,67.60
2018-07-10T15:00:25.234Z,63.50
2018-07-10T15:02:54.227Z,62.80
2018-07-10T15:05:23.490Z,63.30
2018-07-10T15:07:52.636Z,67.00
2018-07-10T15:10:21.607Z,70.60
2018-07-10T15:12:50.603Z,72.60
2018-07-10T15:15:19.886Z,76.60
2018-07-10T15:17:55.894Z,76.60
2018-07-10T15:20:25.267Z,75.20
2018-07-10T15:22:54.237Z,76.70
2018-07-10T15:25:23.241Z,77.30
2018-07-10T15:27:52.255Z,78.20
2018-07-10T15:30:21.292Z,79.10
2018-07-10T15:32:50.295Z,78.30
2018-07-10T15:35:19.357Z,82.60
2018-07-10T15:37:48.350Z,81.00
2018-07-10T15:40:17.572Z,78.30
2018-07-10T15:42:46.582Z,73.90
2018-07-10T15:45:15.718Z,69.90
2018-07-10T15:47:44.759Z,66.40
2018-07-10T15:50:13.834Z,61.40
2018-07-10T15:52:42.831Z,58.00
2018-07-10T15:55:11.858Z,59.60
2018-07-10T15:57:41.018Z,61.60
2018-07-10T16:00:09.975Z,64.10
2018-07-10T16:02:39.015Z,66.10
2018-07-10T16:05:08.102Z,68.90
2018-07-10T16:07:37.131Z,70.50
2018-07-10T16:10:06.163Z,72.10
2018-07-10T16:12:35.687Z,73.40
2018-07-10T16:15:04.786Z,72.90
2018-07-10T16:17:33.791Z,73.60
2018-07-10T16:20:08.095Z,75.00
2018-07-10T16:22:38.003Z,73.50
2018-07-10T16:25:13.413Z,72.50
2018-07-10T16:27:44.035Z,72.70
2018-07-10T16:30:16.899Z,68.90
2018-07-10T16:32:45.911Z,69.30
2018-07-10T16:35:16.230Z,69.20
2018-07-10T16:37:45.246Z,71.10
2018-07-10T16:40:14.898Z,72.00
2018-07-10T16:42:49.199Z,74.30
2018-07-10T16:45:36.021Z,75.40
2018-07-10T16:50:11.711Z,77.20
2018-07-10T16:52:58.066Z,76.80
2018-07-10T16:55:28.135Z,78.50
2018-07-10T16:57:57.221Z,79.20
2018-07-10T17:00:28.894Z,79.20
2018-07-10T17:02:58.342Z,78.20
2018-07-10T17:05:27.800Z,77.70
2018-07-10T17:07:56.926Z,78.30
2018-07-10T17:10:25.941Z,78.80
2018-07-10T17:12:54.952Z,79.10
2018-07-10T17:15:23.927Z,79.80
2018-07-10T17:17:52.977Z,80.00
2018-07-10T17:20:22.003Z,79.80
2018-07-10T17:22:51.011Z,79.30
2018-07-10T17:25:20.026Z,80.10
2018-07-10T17:27:50.422Z,79.90
2018-07-10T17:30:19.400Z,81.50
2018-07-10T17:32:48.496Z,80.20
2018-07-10T17:35:17.442Z,80.80
2018-07-10T17:37:47.790Z,81.40
2018-07-10T17:40:17.063Z,81.70
2018-07-10T17:42:46.639Z,82.40
2018-07-10T17:45:21.618Z,84.10
2018-07-10T17:47:50.912Z,83.50
2018-07-10T17:50:20.333Z,83.50
2018-07-10T17:52:49.455Z,84.30
2018-07-10T17:55:18.463Z,83.10
2018-07-10T17:57:47.451Z,83.90
2018-07-10T18:00:16.471Z,83.60
2018-07-10T18:02:45.539Z,84.10
2018-07-10T18:05:14.471Z,84.60
2018-07-10T18:07:43.459Z,84.90
2018-07-10T18:10:12.512Z,85.30
2018-07-10T18:12:41.464Z,86.40
2018-07-10T18:15:10.475Z,87.60
2018-07-10T18:17:39.531Z,86.70
2018-07-10T18:20:08.531Z,87.30
2018-07-10T18:22:37.603Z,86.70
2018-07-10T18:25:06.719Z,87.30
2018-07-10T18:27:35.845Z,87.50
2018-07-10T18:30:04.858Z,89.20
2018-07-10T18:32:33.937Z,88.70
2018-07-10T18:35:02.894Z,88.30
2018-07-10T18:37:32.001Z,89.30
2018-07-10T18:40:01.022Z,89.10
2018-07-10T18:42:30.044Z,89.50
2018-07-10T18:44:59.008Z,89.50
2018-07-10T18:47:28.506Z,90.20
2018-07-10T18:49:57.522Z,89.60
2018-07-10T18:52:28.035Z,88.60
2018-07-10T18:54:58.423Z,89.60
2018-07-10T18:57:38.319Z,90.00
2018-07-10T19:00:07.510Z,90.10
2018-07-10T19:02:55.698Z,90.20
2018-07-10T19:05:24.727Z,90.40
2018-07-10T19:07:53.719Z,90.70
2018-07-10T19:10:22.760Z,90.90
2018-07-10T19:12:51.714Z,90.80
2018-07-10T19:15:20.769Z,91.20
2018-07-10T19:17:49.774Z,90.60
2018-07-10T19:20:18.899Z,91.60
2018-07-10T19:22:54.683Z,91.60
2018-07-10T19:25:24.074Z,92.60
2018-07-10T19:27:54.704Z,93.40
2018-07-10T19:31:02.474Z,93.10
2018-07-10T19:33:31.554Z,92.50
2018-07-10T19:36:00.607Z,93.70
2018-07-10T19:38:29.967Z,94.90
2018-07-10T19:40:58.986Z,94.60
2018-07-10T19:43:27.974Z,95.00
2018-07-10T19:45:56.982Z,95.80
2018-07-10T19:48:27.159Z,95.20
2018-07-10T19:50:56.270Z,96.30
2018-07-10T19:53:25.494Z,96.90
2018-07-10T19:55:54.501Z,96.30
2018-07-10T19:58:40.312Z,95.70
2018-07-10T20:01:31.843Z,96.20
2018-07-10T20:04:04.538Z,95.90
2018-07-10T20:06:42.752Z,95.90
2018-07-10T20:09:16.218Z,96.30
2018-07-10T20:11:50.191Z,97.10
2018-07-10T20:14:19.481Z,97.50
2018-07-10T20:16:53.942Z,97.20
2018-07-10T20:19:50.806Z,96.90
2018-07-10T20:22:27.790Z,96.60
2018-07-10T20:27:09.722Z,96.90
2018-07-10T20:29:51.246Z,96.40
2018-07-10T20:32:26.287Z,97.50
2018-07-10T20:35:01.874Z,97.00
2018-07-10T20:37:31.364Z,98.00
2018-07-10T20:40:00.350Z,97.80
2018-07-10T20:42:32.014Z,98.50
2018-07-10T20:45:05.350Z,97.70
2018-07-10T20:47:53.739Z,97.40
2018-07-10T20:50:33.592Z,97.60
2018-07-10T20:53:07.558Z,97.80
2018-07-10T20:55:42.888Z,98.80
2018-07-10T20:58:15.502Z,98.70
2018-07-10T21:01:05.551Z,98.80
2018-07-10T21:03:50.979Z,99.20
2018-07-10T21:06:20.994Z,99.90
2018-07-10T21:09:12.670Z,99.90
2018-07-10T21:11:48.079Z,99.90
2018-07-10T21:14:25.930Z,99.90
2018-07-10T21:17:04.421Z,99.90
2018-07-10T21:20:06.738Z,99.90
2018-07-10T21:22:45.035Z,99.90
2018-07-10T21:25:18.562Z,99.90
2018-07-10T21:28:03.474Z,99.90
2018-07-10T21:30:36.102Z,99.90
2018-07-10T21:33:33.290Z,99.90
2018-07-10T21:36:06.733Z,99.90
2018-07-10T21:38:45.067Z,99.90
2018-07-10T21:41:58.162Z,99.90
2018-07-10T21:46:56.977Z,99.90
2018-07-10T21:49:59.566Z,99.90
2018-07-10T21:52:28.602Z,99.90
2018-07-10T21:54:57.735Z,99.90
2018-07-10T21:57:31.486Z,99.90
2018-07-10T22:00:00.823Z,99.90
2018-07-10T22:02:30.112Z,99.90
2018-07-10T22:04:59.482Z,99.90
2018-07-10T22:07:29.453Z,99.90
2018-07-10T22:10:07.208Z,99.90
2018-07-10T22:12:39.575Z,99.90
2018-07-10T22:15:08.590Z,99.90
2018-07-10T22:17:38.431Z,99.90
2018-07-10T22:20:08.093Z,99.90
2018-07-10T22:22:37.098Z,99.90
2018-07-10T22:25:07.488Z,99.90
2018-07-10T22:27:38.715Z,99.90
2018-07-10T22:30:14.122Z,99.90
2018-07-10T22:32:48.543Z,99.90
2018-07-10T22:35:17.527Z,99.90
2018-07-10T22:37:46.517Z,99.90
2018-07-10T22:40:16.406Z,99.90
2018-07-10T22:42:45.750Z,99.90
2018-07-10T22:45:14.758Z,99.90
2018-07-10T22:47:44.614Z,99.90
2018-07-10T22:50:15.752Z,99.90
2018-07-10T22:52:48.244Z,99.90
2018-07-10T22:55:18.781Z,99.90
2018-07-10T22:57:47.804Z,99.90
2018-07-10T23:00:22.827Z,99.90
2018-07-10T23:02:51.776Z,99.90
2018-07-10T23:05:20.775Z,99.90
2018-07-10T23:07:49.795Z,99.90
2018-07-10T23:10:18.958Z,99.90
2018-07-10T23:12:47.966Z,99.90
2018-07-10T23:15:16.950Z,99.90
2018-07-10T23:17:45.950Z,99.90
2018-07-10T23:20:14.946Z,99.90
2018-07-10T23:22:55.234Z,99.90
2018-07-10T23:25:25.703Z,99.90
2018-07-10T23:27:57.624Z,99.90
2018-07-10T23:30:26.956Z,99.90
2018-07-10T23:32:56.223Z,99.90
2018-07-10T23:35:25.442Z,99.90
2018-07-10T23:37:57.018Z,99.90
2018-07-10T23:40:25.990Z,99.90
2018-07-10T23:42:54.986Z,99.90
2018-07-10T23:45:27.126Z,99.90
2018-07-10T23:47:58.423Z,99.90
2018-07-10T23:50:28.642Z,99.90
2018-07-10T23:54:02.112Z,99.90
2018-07-10T23:56:31.682Z,99.90
2018-07-10T23:59:00.770Z,99.90
